createdAt,value
2018-08-03T00:00:54.194Z,95177.69
2018-08-03T00:03:20.536Z,95177.45
2018-08-03T00:05:46.936Z,95174.64
2018-08-03T00:08:13.308Z,95172.53
2018-08-03T00:10:39.665Z,95172.02
2018-08-03T00:13:06.150Z,95164.47
2018-08-03T00:15:32.576Z,95166.45
2018-08-03T00:17:58.924Z,95164.47
2018-08-03T00:20:25.307Z,95165.11
2018-08-03T00:22:51.706Z,95162.13
2018-08-03T00:25:18.197Z,95158.55
2018-08-03T00:27:44.564Z,95150.30
2018-08-03T00:30:10.998Z,95151.28
2018-08-03T00:32:37.510Z,95145.84
2018-08-03T00:35:03.944Z,95150.40
2018-08-03T00:37:30.283Z,95149.94
2018-08-03T00:39:56.625Z,95152.11
2018-08-03T00:42:23.046Z,95154.73
2018-08-03T00:44:49.479Z,95157.77
2018-08-03T00:47:15.840Z,95160.70
2018-08-03T00:49:42.235Z,95163.52
2018-08-03T00:52:08.576Z,95161.35
2018-08-03T00:54:34.981Z,95163.41
2018-08-03T00:57:01.322Z,95163.47
2018-08-03T00:59:27.706Z,95161.04
2018-08-03T01:01:54.037Z,95166.38
2018-08-03T01:04:20.374Z,95170.05
2018-08-03T01:06:46.776Z,95167.09
2018-08-03T01:09:13.112Z,95167.71
2018-08-03T01:11:39.530Z,95169.03
2018-08-03T01:14:05.896Z,95171.98
2018-08-03T01:16:32.244Z,95171.48
2018-08-03T01:18:58.716Z,95171.70
2018-08-03T01:21:25.190Z,95173.81
2018-08-03T01:23:51.557Z,95176.95
2018-08-03T01:26:17.933Z,95174.75
2018-08-03T01:28:44.271Z,95174.38
2018-08-03T01:31:10.601Z,95173.27
2018-08-03T01:33:36.963Z,95169.18
2018-08-03T01:36:03.283Z,95174.52
2018-08-03T01:38:29.663Z,95173.69
2018-08-03T01:40:56.049Z,95176.08
2018-08-03T01:43:22.373Z,95174.61
2018-08-03T01:45:48.726Z,95169.77
2018-08-03T01:48:15.130Z,95176.08
2018-08-03T01:50:41.510Z,95171.44
2018-08-03T01:53:07.942Z,95170.11
2018-08-03T01:55:34.301Z,95173.45
2018-08-03T01:58:00.710Z,95176.49
2018-08-03T02:00:27.059Z,95174.74
2018-08-03T02:02:53.441Z,95178.30
2018-08-03T02:05:19.803Z,95180.22
2018-08-03T02:07:46.163Z,95186.10
2018-08-03T02:10:12.525Z,95188.83
2018-08-03T02:12:38.913Z,95176.13
2018-08-03T02:15:05.327Z,95180.17
2018-08-03T02:17:31.677Z,95181.33
2018-08-03T02:19:58.018Z,95179.06
2018-08-03T02:22:24.362Z,95182.16
2018-08-03T02:24:50.763Z,95185.14
2018-08-03T02:27:17.204Z,95181.33
2018-08-03T02:29:43.554Z,95186.94
2018-08-03T02:32:09.955Z,95188.64
2018-08-03T02:34:36.400Z,95196.41
2018-08-03T02:37:02.732Z,95190.47
2018-08-03T02:39:29.090Z,95189.33
2018-08-03T02:41:55.430Z,95187.35
2018-08-03T02:44:21.768Z,95184.31
2018-08-03T02:46:48.192Z,95192.32
2018-08-03T02:49:14.529Z,95189.70
2018-08-03T02:51:40.901Z,95189.09
2018-08-03T02:54:07.243Z,95199.81
2018-08-03T02:56:33.580Z,95197.14
2018-08-03T02:58:59.945Z,95199.86
2018-08-03T03:01:26.288Z,95194.02
2018-08-03T03:03:52.668Z,95192.83
2018-08-03T03:06:19.129Z,95199.58
2018-08-03T03:08:45.465Z,95194.11
2018-08-03T03:11:11.819Z,95201.92
2018-08-03T03:13:38.159Z,95197.92
2018-08-03T03:16:04.516Z,95201.97
2018-08-03T03:18:30.837Z,95198.98
2018-08-03T03:20:57.174Z,95198.66
2018-08-03T03:23:23.570Z,95200.31
2018-08-03T03:25:49.965Z,95198.20
2018-08-03T03:28:16.294Z,95196.39
2018-08-03T03:30:42.639Z,95201.04
2018-08-03T03:33:09.000Z,95208.17
2018-08-03T03:35:35.330Z,95205.92
2018-08-03T03:38:01.717Z,95201.05
2018-08-03T03:40:28.106Z,95204.69
2018-08-03T03:42:54.771Z,95216.14
2018-08-03T03:45:21.106Z,95210.07
2018-08-03T03:47:47.468Z,95215.59
2018-08-03T03:50:13.853Z,95217.88
2018-08-03T03:52:40.206Z,95217.52
2018-08-03T03:55:06.646Z,95211.91
2018-08-03T03:57:33.020Z,95223.04
2018-08-03T03:59:59.451Z,95220.33
2018-08-03T04:02:25.772Z,95224.59
2018-08-03T04:04:52.093Z,95227.13
2018-08-03T04:07:18.575Z,95236.32
2018-08-03T04:09:44.913Z,95235.27
2018-08-03T04:12:11.324Z,95241.56
2018-08-03T04:14:37.709Z,95239.95
2018-08-03T04:17:04.042Z,95240.91
2018-08-03T04:19:30.452Z,95241.19
2018-08-03T04:21:56.783Z,95242.89
2018-08-03T04:24:23.160Z,95239.10
2018-08-03T04:26:49.545Z,95240.91
2018-08-03T04:29:15.890Z,95240.44
2018-08-03T04:31:42.288Z,95238.27
2018-08-03T04:34:08.619Z,95238.94
2018-08-03T04:36:35.044Z,95245.89
2018-08-03T04:39:01.440Z,95245.48
2018-08-03T04:41:28.034Z,95245.95
2018-08-03T04:43:54.362Z,95252.71
2018-08-03T04:46:20.730Z,95253.22
2018-08-03T04:48:47.151Z,95254.53
2018-08-03T04:51:13.435Z,95254.77
2018-08-03T04:53:39.795Z,95256.80
2018-08-03T04:56:06.141Z,95249.02
2018-08-03T04:58:32.556Z,95254.01
2018-08-03T05:00:58.985Z,95258.28
2018-08-03T05:03:25.314Z,95257.28
2018-08-03T05:05:51.640Z,95257.09
2018-08-03T05:08:18.031Z,95260.72
2018-08-03T05:10:44.412Z,95260.28
2018-08-03T05:13:10.780Z,95263.70
2018-08-03T05:15:37.287Z,95267.63
2018-08-03T05:18:03.659Z,95271.36
2018-08-03T05:20:30.057Z,95273.84
2018-08-03T05:22:56.555Z,95273.09
2018-08-03T05:25:22.927Z,95278.41
2018-08-03T05:27:49.318Z,95281.11
2018-08-03T05:30:15.877Z,95279.70
2018-08-03T05:32:42.208Z,95277.77
2018-08-03T05:35:08.527Z,95278.59
2018-08-03T05:37:34.874Z,95275.86
2018-08-03T05:40:01.248Z,95279.22
2018-08-03T05:42:27.673Z,95274.23
2018-08-03T05:44:54.037Z,95276.91
2018-08-03T05:47:20.385Z,95280.33
2018-08-03T05:49:46.720Z,95276.56
2018-08-03T05:52:13.463Z,95279.59
2018-08-03T05:54:39.807Z,95280.78
2018-08-03T05:57:06.231Z,95277.84
2018-08-03T05:59:32.571Z,95278.01
2018-08-03T06:01:58.968Z,95277.84
2018-08-03T06:04:25.392Z,95279.14
2018-08-03T06:06:51.803Z,95282.58
2018-08-03T06:09:18.159Z,95280.27
2018-08-03T06:11:44.510Z,95274.05
2018-08-03T06:14:10.948Z,95279.05
2018-08-03T06:16:37.284Z,95276.85
2018-08-03T06:19:03.812Z,95273.86
2018-08-03T06:21:30.192Z,95272.95
2018-08-03T06:23:56.600Z,95270.20
2018-08-03T06:26:22.979Z,95276.36
2018-08-03T06:28:49.311Z,95276.01
2018-08-03T06:31:15.677Z,95276.26
2018-08-03T06:33:42.025Z,95276.48
2018-08-03T06:36:08.405Z,95280.93
2018-08-03T06:38:34.870Z,95277.19
2018-08-03T06:41:01.241Z,95275.10
2018-08-03T06:43:27.573Z,95277.74
2018-08-03T06:45:54.369Z,95273.20
2018-08-03T06:48:20.727Z,95279.47
2018-08-03T06:50:47.119Z,95277.16
2018-08-03T06:53:13.473Z,95270.80
2018-08-03T06:55:39.804Z,95268.91
2018-08-03T06:58:06.142Z,95280.12
2018-08-03T07:00:32.572Z,95278.08
2018-08-03T07:02:59.076Z,95283.58
2018-08-03T07:05:25.349Z,95275.65
2018-08-03T07:07:51.838Z,95275.54
2018-08-03T07:10:18.192Z,95279.54
2018-08-03T07:12:44.593Z,95284.92
2018-08-03T07:15:11.013Z,95287.70
2018-08-03T07:17:37.393Z,95292.78
2018-08-03T07:20:03.748Z,95294.30
2018-08-03T07:22:30.077Z,95291.90
2018-08-03T07:24:56.438Z,95294.12
2018-08-03T07:27:22.776Z,95285.44
2018-08-03T07:29:49.155Z,95281.04
2018-08-03T07:32:15.513Z,95284.30
2018-08-03T07:34:41.871Z,95287.19
2018-08-03T07:37:08.325Z,95289.31
2018-08-03T07:39:34.790Z,95284.03
2018-08-03T07:42:01.119Z,95284.50
2018-08-03T07:44:27.665Z,95295.12
2018-08-03T07:46:54.045Z,95292.12
2018-08-03T07:49:20.489Z,95285.08
2018-08-03T07:51:46.847Z,95289.98
2018-08-03T07:54:13.237Z,95291.73
2018-08-03T07:56:39.639Z,95292.22
2018-08-03T07:59:05.984Z,95292.42
2018-08-03T08:01:32.332Z,95287.52
2018-08-03T08:03:58.668Z,95286.86
2018-08-03T08:06:25.050Z,95284.80
2018-08-03T08:08:51.428Z,95283.89
2018-08-03T08:11:17.775Z,95283.58
2018-08-03T08:13:44.107Z,95283.15
2018-08-03T08:16:10.443Z,95289.98
2018-08-03T08:18:36.793Z,95284.96
2018-08-03T08:21:03.219Z,95289.00
2018-08-03T08:23:29.614Z,95280.51
2018-08-03T08:25:56.079Z,95286.00
2018-08-03T08:28:22.484Z,95285.97
2018-08-03T08:30:48.893Z,95283.30
2018-08-03T08:33:15.230Z,95281.70
2018-08-03T08:35:41.613Z,95277.88
2018-08-03T08:38:07.948Z,95274.63
2018-08-03T08:40:34.305Z,95275.50
2018-08-03T08:43:00.635Z,95275.55
2018-08-03T08:45:26.989Z,95274.31
2018-08-03T08:47:53.335Z,95263.52
2018-08-03T08:50:19.697Z,95272.61
2018-08-03T08:52:46.194Z,95264.85
2018-08-03T08:55:12.561Z,95266.36
2018-08-03T08:57:38.888Z,95266.50
2018-08-03T09:00:05.232Z,95263.92
2018-08-03T09:02:31.556Z,95266.70
2018-08-03T09:04:57.908Z,95270.70
2018-08-03T09:07:24.383Z,95262.94
2018-08-03T09:09:50.728Z,95268.05
2018-08-03T09:12:17.049Z,95261.38
2018-08-03T09:14:43.378Z,95268.00
2018-08-03T09:17:09.703Z,95257.63
2018-08-03T09:19:36.162Z,95260.34
2018-08-03T09:22:02.558Z,95250.68
2018-08-03T09:24:28.973Z,95259.25
2018-08-03T09:26:55.358Z,95256.77
2018-08-03T09:29:21.745Z,95258.83
2018-08-03T09:31:48.191Z,95258.28
2018-08-03T09:34:14.657Z,95256.71
2018-08-03T09:36:40.999Z,95255.11
2018-08-03T09:39:07.427Z,95253.80
2018-08-03T09:41:39.246Z,95248.77
2018-08-03T09:44:05.761Z,95251.09
2018-08-03T09:46:32.190Z,95251.16
2018-08-03T09:48:58.555Z,95248.77
2018-08-03T09:51:25.095Z,95251.83
2018-08-03T09:53:51.450Z,95246.64
2018-08-03T09:56:17.919Z,95246.60
2018-08-03T09:58:44.345Z,95245.50
2018-08-03T10:01:10.854Z,95244.37
2018-08-03T10:03:37.259Z,95243.89
2018-08-03T10:06:03.657Z,95243.95
2018-08-03T10:08:30.043Z,95242.08
2018-08-03T10:10:57.032Z,95244.98
2018-08-03T10:13:23.904Z,95230.41
2018-08-03T10:15:50.275Z,95234.63
2018-08-03T10:18:16.662Z,95233.60
2018-08-03T10:20:43.092Z,95233.51
2018-08-03T10:23:09.441Z,95232.05
2018-08-03T10:25:35.880Z,95235.56
2018-08-03T10:28:02.214Z,95233.04
2018-08-03T10:30:29.157Z,95226.41
2018-08-03T10:32:55.501Z,95222.95
2018-08-03T10:35:22.000Z,95219.52
2018-08-03T10:37:48.779Z,95217.97
2018-08-03T10:40:15.135Z,95211.26
2018-08-03T10:42:41.675Z,95213.33
2018-08-03T10:45:08.170Z,95213.98
2018-08-03T10:47:34.546Z,95206.23
2018-08-03T10:50:00.943Z,95201.53
2018-08-03T10:52:27.292Z,95198.63
2018-08-03T10:54:53.680Z,95200.45
2018-08-03T10:57:20.072Z,95193.45
2018-08-03T10:59:46.446Z,95188.70
2018-08-03T11:02:12.786Z,95188.75
2018-08-03T11:04:39.170Z,95193.14
2018-08-03T11:07:05.535Z,95186.33
2018-08-03T11:09:31.870Z,95187.61
2018-08-03T11:11:58.192Z,95191.78
2018-08-03T11:14:24.523Z,95193.87
2018-08-03T11:16:50.982Z,95184.49
2018-08-03T11:19:17.375Z,95190.72
2018-08-03T11:21:43.724Z,95189.33
2018-08-03T11:24:10.221Z,95188.50
2018-08-03T11:26:36.604Z,95185.77
2018-08-03T11:29:02.976Z,95185.55
2018-08-03T11:31:29.337Z,95182.44
2018-08-03T11:33:55.694Z,95186.88
2018-08-03T11:36:22.050Z,95184.77
2018-08-03T11:38:48.409Z,95181.34
2018-08-03T11:41:14.763Z,95181.30
2018-08-03T11:43:41.145Z,95178.72
2018-08-03T11:46:07.493Z,95181.14
2018-08-03T11:48:33.932Z,95179.84
2018-08-03T11:51:00.322Z,95179.25
2018-08-03T11:53:26.733Z,95178.72
2018-08-03T11:55:53.083Z,95172.41
2018-08-03T11:58:19.432Z,95178.57
2018-08-03T12:00:45.817Z,95166.91
2018-08-03T12:03:12.248Z,95163.67
2018-08-03T12:05:38.597Z,95164.44
2018-08-03T12:08:04.927Z,95162.83
2018-08-03T12:10:31.385Z,95152.37
2018-08-03T12:12:57.754Z,95159.39
2018-08-03T12:15:24.125Z,95155.89
2018-08-03T12:17:50.783Z,95142.38
2018-08-03T12:20:17.115Z,95145.48
2018-08-03T12:22:43.524Z,95142.75
2018-08-03T12:25:09.863Z,95146.72
2018-08-03T12:27:36.281Z,95148.19
2018-08-03T12:30:02.679Z,95144.48
2018-08-03T12:32:29.017Z,95147.75
2018-08-03T12:34:55.449Z,95139.17
2018-08-03T12:37:21.812Z,95130.11
2018-08-03T12:39:48.268Z,95132.38
2018-08-03T12:42:14.604Z,95130.94
2018-08-03T12:44:40.973Z,95129.31
2018-08-03T12:47:07.356Z,95131.02
2018-08-03T12:49:33.769Z,95130.52
2018-08-03T12:52:00.124Z,95124.02
2018-08-03T12:54:26.497Z,95127.81
2018-08-03T12:56:53.225Z,95130.00
2018-08-03T12:59:19.564Z,95129.05
2018-08-03T13:01:45.956Z,95128.64
2018-08-03T13:04:12.429Z,95123.32
2018-08-03T13:06:38.834Z,95127.32
2018-08-03T13:09:05.183Z,95124.82
2018-08-03T13:11:31.557Z,95122.88
2018-08-03T13:13:58.022Z,95122.97
2018-08-03T13:16:24.378Z,95124.12
2018-08-03T13:18:50.772Z,95118.88
2018-08-03T13:21:17.188Z,95121.15
2018-08-03T13:23:43.546Z,95123.67
2018-08-03T13:26:09.954Z,95122.53
2018-08-03T13:28:37.026Z,95116.21
2018-08-03T13:31:03.405Z,95116.15
2018-08-03T13:33:29.747Z,95123.30
2018-08-03T13:35:56.119Z,95125.06
2018-08-03T13:38:22.547Z,95129.67
2018-08-03T13:40:48.909Z,95126.17
2018-08-03T13:43:15.291Z,95117.71
2018-08-03T13:45:41.650Z,95111.23
2018-08-03T13:48:08.095Z,95115.00
2018-08-03T13:50:34.453Z,95120.12
2018-08-03T13:53:00.816Z,95116.36
2018-08-03T13:55:27.157Z,95118.36
2018-08-03T13:57:53.756Z,95114.09
2018-08-03T14:00:20.151Z,95110.97
2018-08-03T14:02:46.604Z,95105.59
2018-08-03T14:05:12.992Z,95108.51
2018-08-03T14:07:39.352Z,95101.80
2018-08-03T14:10:05.677Z,95106.80
2018-08-03T14:12:32.041Z,95102.05
2018-08-03T14:14:58.381Z,95104.52
2018-08-03T14:17:25.065Z,95105.80
2018-08-03T14:19:51.417Z,95097.84
2018-08-03T14:22:17.815Z,95099.58
2018-08-03T14:24:44.125Z,95105.92
2018-08-03T14:27:10.496Z,95100.02
2018-08-03T14:29:37.089Z,95097.61
2018-08-03T14:32:03.428Z,95097.69
2018-08-03T14:34:29.892Z,95092.73
2018-08-03T14:36:56.339Z,95095.11
2018-08-03T14:39:22.772Z,95093.20
2018-08-03T14:41:49.134Z,95091.70
2018-08-03T14:44:15.497Z,95089.03
2018-08-03T14:46:41.829Z,95086.26
2018-08-03T14:49:08.281Z,95083.91
2018-08-03T14:51:34.629Z,95084.27
2018-08-03T14:54:01.125Z,95081.77
2018-08-03T14:56:27.498Z,95083.97
2018-08-03T14:58:53.897Z,95016.48
2018-08-03T15:01:20.221Z,95085.50
2018-08-03T15:03:46.670Z,95081.33
2018-08-03T15:06:13.049Z,95086.64
2018-08-03T15:08:39.456Z,95087.94
2018-08-03T15:11:05.784Z,95091.69
2018-08-03T15:13:32.210Z,95091.32
2018-08-03T15:15:58.564Z,95096.61
2018-08-03T15:18:24.914Z,95101.84
2018-08-03T15:20:51.314Z,95093.75
2018-08-03T15:23:17.694Z,95100.42
2018-08-03T15:25:44.077Z,95099.39
2018-08-03T15:28:10.453Z,95097.25
2018-08-03T15:30:36.826Z,95101.25
2018-08-03T15:33:03.162Z,95101.66
2018-08-03T15:35:29.535Z,95102.39
2018-08-03T15:37:55.890Z,95106.89
2018-08-03T15:40:22.216Z,95103.16
2018-08-03T15:42:48.696Z,95106.53
2018-08-03T15:45:15.091Z,95111.17
2018-08-03T15:47:41.507Z,95111.09
2018-08-03T15:50:08.016Z,95110.14
2018-08-03T15:52:34.421Z,95108.84
2018-08-03T15:55:00.861Z,95113.49
2018-08-03T15:57:27.215Z,95107.09
2018-08-03T15:59:53.597Z,95112.52
2018-08-03T16:02:20.041Z,95113.51
2018-08-03T16:04:46.378Z,95117.13
2018-08-03T16:07:12.694Z,95119.11
2018-08-03T16:09:39.070Z,95113.72
2018-08-03T16:12:05.449Z,95119.11
2018-08-03T16:14:31.862Z,95125.61
2018-08-03T16:16:58.239Z,95124.44
2018-08-03T16:19:24.573Z,95129.04
2018-08-03T16:21:50.949Z,95131.15
2018-08-03T16:24:17.291Z,95122.10
2018-08-03T16:26:43.710Z,95129.91
2018-08-03T16:29:10.023Z,95136.88
2018-08-03T16:31:36.432Z,95133.32
2018-08-03T16:34:02.778Z,95131.81
2018-08-03T16:36:29.180Z,95138.44
2018-08-03T16:38:55.537Z,95127.27
2018-08-03T16:41:21.968Z,95135.45
2018-08-03T16:43:48.360Z,95133.42
2018-08-03T16:46:14.713Z,95133.94
2018-08-03T16:48:41.076Z,95128.68
2018-08-03T16:51:07.434Z,95124.80
2018-08-03T16:53:33.815Z,95122.52
2018-08-03T16:56:00.147Z,95126.51
2018-08-03T16:58:26.509Z,95124.59
2018-08-03T17:00:52.837Z,95130.69
2018-08-03T17:03:19.198Z,95136.98
2018-08-03T17:05:45.541Z,95140.56
2018-08-03T17:08:11.922Z,95141.17
2018-08-03T17:10:38.308Z,95137.45
2018-08-03T17:13:04.705Z,95133.48
2018-08-03T17:15:31.064Z,95133.94
2018-08-03T17:17:57.423Z,95139.25
2018-08-03T17:20:23.824Z,95136.10
2018-08-03T17:22:50.274Z,95135.29
2018-08-03T17:25:17.378Z,95144.42
2018-08-03T17:27:43.792Z,95145.61
2018-08-03T17:30:10.138Z,95149.48
2018-08-03T17:32:36.538Z,95149.84
2018-08-03T17:35:02.905Z,95149.05
2018-08-03T17:37:29.236Z,95154.13
2018-08-03T17:39:55.667Z,95158.66
2018-08-03T17:42:22.019Z,95156.48
2018-08-03T17:44:48.387Z,95158.59
2018-08-03T17:47:14.766Z,95163.36
2018-08-03T17:49:41.128Z,95165.39
2018-08-03T17:52:07.488Z,95166.22
2018-08-03T17:54:33.848Z,95164.33
2018-08-03T17:57:00.177Z,95168.20
2018-08-03T17:59:26.552Z,95170.62
2018-08-03T18:01:52.910Z,95170.04
2018-08-03T18:04:19.308Z,95168.12
2018-08-03T18:06:45.644Z,95169.08
2018-08-03T18:09:12.009Z,95169.80
2018-08-03T18:11:38.364Z,95168.84
2018-08-03T18:14:04.773Z,95172.37
2018-08-03T18:16:31.126Z,95177.22
2018-08-03T18:18:57.452Z,95174.73
2018-08-03T18:21:23.790Z,95180.86
2018-08-03T18:23:50.166Z,95187.53
2018-08-03T18:26:16.563Z,95191.92
2018-08-03T18:28:43.069Z,95199.55
2018-08-03T18:31:09.557Z,95200.23
2018-08-03T18:33:35.982Z,95205.31
2018-08-03T18:36:02.300Z,95201.77
2018-08-03T18:38:28.726Z,95210.42
2018-08-03T18:40:55.064Z,95208.96
2018-08-03T18:43:22.167Z,95212.86
2018-08-03T18:45:48.503Z,95214.47
2018-08-03T18:48:15.026Z,95218.59
2018-08-03T18:50:41.371Z,95216.18
2018-08-03T18:53:07.739Z,95219.95
2018-08-03T18:55:34.158Z,95217.70
2018-08-03T18:58:00.512Z,95219.57
2018-08-03T19:00:27.001Z,95220.98
2018-08-03T19:02:53.340Z,95217.11
2018-08-03T19:05:19.675Z,95221.72
2018-08-03T19:07:45.996Z,95218.52
2018-08-03T19:10:12.374Z,95212.94
2018-08-03T19:12:38.798Z,95216.94
2018-08-03T19:15:05.158Z,95215.84
2018-08-03T19:17:31.510Z,95220.34
2018-08-03T19:19:57.814Z,95225.33
2018-08-03T19:22:24.188Z,95228.32
2018-08-03T19:24:50.540Z,95230.49
2018-08-03T19:27:16.849Z,95227.02
2018-08-03T19:29:43.243Z,95235.81
2018-08-03T19:32:09.633Z,95233.64
2018-08-03T19:34:36.007Z,95232.77
2018-08-03T19:37:02.340Z,95236.30
2018-08-03T19:39:28.730Z,95234.29
2018-08-03T19:41:55.067Z,95233.23
2018-08-03T19:44:21.400Z,95227.34
2018-08-03T19:46:47.726Z,95226.15
2018-08-03T19:49:14.159Z,95222.39
2018-08-03T19:51:40.532Z,95221.41
2018-08-03T19:54:06.958Z,95224.22
2018-08-03T19:56:33.318Z,95221.75
2018-08-03T19:58:59.800Z,95230.19
2018-08-03T20:01:26.275Z,95225.70
2018-08-03T20:03:52.840Z,95215.36
2018-08-03T20:06:19.156Z,95216.83
2018-08-03T20:08:45.485Z,95218.52
2018-08-03T20:11:11.915Z,95224.21
2018-08-03T20:13:38.315Z,95229.50
2018-08-03T20:16:04.654Z,95231.95
2018-08-03T20:18:30.983Z,95230.06
2018-08-03T20:20:57.347Z,95225.81
2018-08-03T20:23:23.780Z,95223.56
2018-08-03T20:25:50.136Z,95223.05
2018-08-03T20:28:16.466Z,95221.30
2018-08-03T20:30:42.900Z,95228.22
2018-08-03T20:33:09.224Z,95234.30
2018-08-03T20:35:35.626Z,95229.69
2018-08-03T20:38:02.016Z,95245.86
2018-08-03T20:40:28.347Z,95245.91
2018-08-03T20:42:54.731Z,95240.56
2018-08-03T20:45:21.250Z,95237.98
2018-08-03T20:47:47.648Z,95239.70
2018-08-03T20:50:14.035Z,95242.50
2018-08-03T20:52:40.423Z,95243.38
2018-08-03T20:55:06.969Z,95230.79
2018-08-03T20:57:33.588Z,95233.47
2018-08-03T20:59:59.940Z,95235.17
2018-08-03T21:02:26.465Z,95246.60
2018-08-03T21:04:52.897Z,95239.16
2018-08-03T21:07:19.281Z,95244.91
2018-08-03T21:09:45.887Z,95239.47
2018-08-03T21:12:12.262Z,95246.24
2018-08-03T21:14:38.699Z,95247.48
2018-08-03T21:17:05.086Z,95252.23
2018-08-03T21:19:31.463Z,95250.22
2018-08-03T21:21:57.839Z,95244.59
2018-08-03T21:24:24.222Z,95252.33
2018-08-03T21:26:50.715Z,95254.50
2018-08-03T21:29:17.153Z,95242.20
2018-08-03T21:31:43.541Z,95247.92
2018-08-03T21:34:09.899Z,95243.41
2018-08-03T21:36:36.320Z,95247.92
2018-08-03T21:39:02.720Z,95249.39
2018-08-03T21:41:29.075Z,95256.43
2018-08-03T21:43:55.456Z,95257.17
2018-08-03T21:46:21.814Z,95258.46
2018-08-03T21:48:48.222Z,95252.80
2018-08-03T21:51:14.582Z,95256.53
2018-08-03T21:53:41.009Z,95255.38
2018-08-03T21:56:07.399Z,95259.48
2018-08-03T21:58:33.902Z,95254.28
2018-08-03T22:01:00.368Z,95260.13
2018-08-03T22:03:26.731Z,95261.70
2018-08-03T22:05:53.244Z,95260.23
2018-08-03T22:08:19.586Z,95261.23
2018-08-03T22:10:46.018Z,95261.16
2018-08-03T22:13:12.422Z,95255.94
2018-08-03T22:15:38.801Z,95257.01
2018-08-03T22:18:05.164Z,95257.05
2018-08-03T22:20:31.523Z,95261.28
2018-08-03T22:22:57.903Z,95266.57
2018-08-03T22:25:24.334Z,95264.33
2018-08-03T22:27:50.729Z,95264.73
2018-08-03T22:30:17.153Z,95260.23
2018-08-03T22:32:43.677Z,95265.38
2018-08-03T22:35:09.958Z,95262.85
2018-08-03T22:37:36.418Z,95269.02
2018-08-03T22:40:02.779Z,95266.30
2018-08-03T22:42:29.183Z,95259.81
2018-08-03T22:44:55.516Z,95265.66
2018-08-03T22:47:21.867Z,95263.62
2018-08-03T22:49:48.262Z,95264.50
2018-08-03T22:52:14.625Z,95260.14
2018-08-03T22:54:41.008Z,95256.64
2018-08-03T22:57:07.369Z,95248.49
2018-08-03T22:59:33.793Z,95249.41
2018-08-03T23:02:00.204Z,95251.38
2018-08-03T23:04:26.563Z,95247.90
2018-08-03T23:06:52.924Z,95244.76
2018-08-03T23:09:19.305Z,95241.45
2018-08-03T23:11:45.649Z,95241.64
2018-08-03T23:14:12.056Z,95240.11
2018-08-03T23:16:38.401Z,95245.22
2018-08-03T23:19:04.792Z,95238.78
2018-08-03T23:21:31.179Z,95235.55
2018-08-03T23:23:57.579Z,95231.20
2018-08-03T23:26:23.938Z,95237.17
2018-08-03T23:28:50.312Z,95236.12
2018-08-03T23:31:16.726Z,95239.19
2018-08-03T23:33:43.165Z,95237.59
2018-08-03T23:36:09.575Z,95236.84
2018-08-03T23:38:35.925Z,95231.69
2018-08-03T23:41:02.285Z,95231.61
2018-08-03T23:43:28.637Z,95234.46
2018-08-03T23:45:54.985Z,95229.91
2018-08-03T23:48:21.339Z,95229.03
2018-08-03T23:50:47.692Z,95228.62
2018-08-03T23:53:14.090Z,95229.39
2018-08-03T23:55:40.460Z,95231.02
2018-08-03T23:58:06.900Z,95219.59
